sensor_id;sensor_type;location;lat;lon;timestamp;P1;durP1;ratioP1;P2;durP2;ratioP2
17422;SDS011;8829;47.932;7.810;2023-05-07T00:01:35;4.10;;;1.27;;
17422;SDS011;8829;47.932;7.810;2023-05-07T00:04:02;3.83;;;1.80;;
17422;SDS011;8829;47.932;7.810;2023-05-07T00:06:29;3.23;;;1.57;;
17422;SDS011;8829;47.932;7.810;2023-05-07T00:08:56;3.90;;;1.30;;
17422;SDS011;8829;47.932;7.810;2023-05-07T00:11:23;1.17;;;1.17;;
17422;SDS011;8829;47.932;7.810;2023-05-07T00:13:50;2.80;;;1.30;;
17422;SDS011;8829;47.932;7.810;2023-05-07T00:16:18;5.83;;;1.67;;
17422;SDS011;8829;47.932;7.810;2023-05-07T00:18:45;1.27;;;1.17;;
17422;SDS011;8829;47.932;7.810;2023-05-07T00:21:12;3.53;;;1.57;;
17422;SDS011;8829;47.932;7.810;2023-05-07T00:23:39;3.23;;;1.53;;
17422;SDS011;8829;47.932;7.810;2023-05-07T00:26:06;1.40;;;1.30;;
17422;SDS011;8829;47.932;7.810;2023-05-07T00:28:32;3.00;;;1.83;;
17422;SDS011;8829;47.932;7.810;2023-05-07T00:30:59;5.30;;;1.57;;
17422;SDS011;8829;47.932;7.810;2023-05-07T00:33:27;2.70;;;1.60;;
17422;SDS011;8829;47.932;7.810;2023-05-07T00:35:54;3.03;;;1.37;;
17422;SDS011;8829;47.932;7.810;2023-05-07T00:38:20;2.03;;;1.60;;
17422;SDS011;8829;47.932;7.810;2023-05-07T00:40:47;1.30;;;1.20;;
17422;SDS011;8829;47.932;7.810;2023-05-07T00:43:14;2.40;;;1.40;;
17422;SDS011;8829;47.932;7.810;2023-05-07T00:45:41;1.13;;;1.13;;
17422;SDS011;8829;47.932;7.810;2023-05-07T00:48:07;1.40;;;1.30;;
17422;SDS011;8829;47.932;7.810;2023-05-07T00:50:35;2.00;;;1.40;;
17422;SDS011;8829;47.932;7.810;2023-05-07T00:53:02;1.53;;;1.40;;
17422;SDS011;8829;47.932;7.810;2023-05-07T00:55:29;1.93;;;1.80;;
17422;SDS011;8829;47.932;7.810;2023-05-07T00:57:57;3.07;;;1.23;;
17422;SDS011;8829;47.932;7.810;2023-05-07T01:00:24;3.00;;;1.43;;
17422;SDS011;8829;47.932;7.810;2023-05-07T01:02:51;2.20;;;1.40;;
17422;SDS011;8829;47.932;7.810;2023-05-07T01:05:18;3.10;;;1.50;;
17422;SDS011;8829;47.932;7.810;2023-05-07T01:07:49;3.53;;;1.27;;
17422;SDS011;8829;47.932;7.810;2023-05-07T01:10:18;3.30;;;1.70;;
17422;SDS011;8829;47.932;7.810;2023-05-07T01:12:45;3.97;;;1.57;;
17422;SDS011;8829;47.932;7.810;2023-05-07T01:15:14;2.50;;;1.40;;
17422;SDS011;8829;47.932;7.810;2023-05-07T01:17:41;1.20;;;1.20;;
17422;SDS011;8829;47.932;7.810;2023-05-07T01:20:09;1.90;;;1.40;;
17422;SDS011;8829;47.932;7.810;2023-05-07T01:22:38;3.57;;;1.63;;
17422;SDS011;8829;47.932;7.810;2023-05-07T01:25:06;1.87;;;1.30;;
17422;SDS011;8829;47.932;7.810;2023-05-07T01:27:34;2.53;;;1.40;;
17422;SDS011;8829;47.932;7.810;2023-05-07T01:30:02;1.40;;;1.37;;
17422;SDS011;8829;47.932;7.810;2023-05-07T01:32:30;1.57;;;1.37;;
17422;SDS011;8829;47.932;7.810;2023-05-07T01:35:01;1.40;;;1.30;;
17422;SDS011;8829;47.932;7.810;2023-05-07T01:37:31;1.40;;;1.13;;
17422;SDS011;8829;47.932;7.810;2023-05-07T01:39:59;3.00;;;1.37;;
17422;SDS011;8829;47.932;7.810;2023-05-07T01:42:28;1.37;;;1.33;;
17422;SDS011;8829;47.932;7.810;2023-05-07T01:44:55;1.50;;;1.40;;
17422;SDS011;8829;47.932;7.810;2023-05-07T01:47:22;1.37;;;1.30;;
17422;SDS011;8829;47.932;7.810;2023-05-07T01:49:50;2.33;;;1.50;;
17422;SDS011;8829;47.932;7.810;2023-05-07T01:52:17;3.17;;;1.50;;
17422;SDS011;8829;47.932;7.810;2023-05-07T01:54:44;1.60;;;1.50;;
17422;SDS011;8829;47.932;7.810;2023-05-07T01:57:12;1.50;;;1.40;;
17422;SDS011;8829;47.932;7.810;2023-05-07T01:59:38;2.60;;;1.43;;
17422;SDS011;8829;47.932;7.810;2023-05-07T02:02:05;4.73;;;1.50;;
17422;SDS011;8829;47.932;7.810;2023-05-07T02:04:31;1.73;;;1.63;;
17422;SDS011;8829;47.932;7.810;2023-05-07T02:06:58;2.30;;;1.40;;
17422;SDS011;8829;47.932;7.810;2023-05-07T02:09:25;1.33;;;1.33;;
17422;SDS011;8829;47.932;7.810;2023-05-07T02:11:52;3.30;;;1.30;;
17422;SDS011;8829;47.932;7.810;2023-05-07T02:14:20;3.10;;;1.90;;
17422;SDS011;8829;47.932;7.810;2023-05-07T02:16:46;2.17;;;1.40;;
17422;SDS011;8829;47.932;7.810;2023-05-07T02:19:13;2.23;;;1.73;;
17422;SDS011;8829;47.932;7.810;2023-05-07T02:21:39;1.47;;;1.40;;
17422;SDS011;8829;47.932;7.810;2023-05-07T02:24:06;3.67;;;1.83;;
17422;SDS011;8829;47.932;7.810;2023-05-07T02:26:33;1.87;;;1.30;;
17422;SDS011;8829;47.932;7.810;2023-05-07T02:29:00;2.77;;;1.60;;
17422;SDS011;8829;47.932;7.810;2023-05-07T02:31:28;1.57;;;1.47;;
17422;SDS011;8829;47.932;7.810;2023-05-07T02:33:54;1.70;;;1.53;;
17422;SDS011;8829;47.932;7.810;2023-05-07T02:36:21;2.20;;;1.53;;
17422;SDS011;8829;47.932;7.810;2023-05-07T02:38:48;2.40;;;1.43;;
17422;SDS011;8829;47.932;7.810;2023-05-07T02:41:14;2.93;;;1.80;;
17422;SDS011;8829;47.932;7.810;2023-05-07T02:43:41;3.47;;;1.70;;
17422;SDS011;8829;47.932;7.810;2023-05-07T02:46:08;1.73;;;1.63;;
17422;SDS011;8829;47.932;7.810;2023-05-07T02:48:36;1.67;;;1.57;;
17422;SDS011;8829;47.932;7.810;2023-05-07T02:51:03;5.37;;;1.93;;
17422;SDS011;8829;47.932;7.810;2023-05-07T02:53:31;3.33;;;1.70;;
17422;SDS011;8829;47.932;7.810;2023-05-07T02:55:59;2.70;;;1.53;;
17422;SDS011;8829;47.932;7.810;2023-05-07T02:58:27;3.40;;;2.00;;
17422;SDS011;8829;47.932;7.810;2023-05-07T03:00:54;6.43;;;1.77;;
17422;SDS011;8829;47.932;7.810;2023-05-07T03:03:21;4.37;;;2.10;;
17422;SDS011;8829;47.932;7.810;2023-05-07T03:05:49;1.40;;;1.40;;
17422;SDS011;8829;47.932;7.810;2023-05-07T03:08:16;5.73;;;1.83;;
17422;SDS011;8829;47.932;7.810;2023-05-07T03:10:43;2.97;;;1.40;;
17422;SDS011;8829;47.932;7.810;2023-05-07T03:13:10;1.73;;;1.50;;
17422;SDS011;8829;47.932;7.810;2023-05-07T03:15:36;1.63;;;1.50;;
17422;SDS011;8829;47.932;7.810;2023-05-07T03:18:03;1.70;;;1.40;;
17422;SDS011;8829;47.932;7.810;2023-05-07T03:20:30;1.60;;;1.30;;
17422;SDS011;8829;47.932;7.810;2023-05-07T03:22:58;2.60;;;1.77;;
17422;SDS011;8829;47.932;7.810;2023-05-07T03:25:24;2.10;;;1.50;;
17422;SDS011;8829;47.932;7.810;2023-05-07T03:27:51;3.50;;;1.77;;
17422;SDS011;8829;47.932;7.810;2023-05-07T03:30:18;2.60;;;1.67;;
17422;SDS011;8829;47.932;7.810;2023-05-07T03:32:45;7.33;;;2.10;;
17422;SDS011;8829;47.932;7.810;2023-05-07T03:35:15;3.33;;;1.90;;
17422;SDS011;8829;47.932;7.810;2023-05-07T03:37:42;2.53;;;1.53;;
17422;SDS011;8829;47.932;7.810;2023-05-07T03:40:11;1.73;;;1.63;;
17422;SDS011;8829;47.932;7.810;2023-05-07T03:42:37;2.20;;;1.47;;
17422;SDS011;8829;47.932;7.810;2023-05-07T03:45:05;4.20;;;1.60;;
17422;SDS011;8829;47.932;7.810;2023-05-07T03:47:32;2.93;;;1.90;;
17422;SDS011;8829;47.932;7.810;2023-05-07T03:49:59;1.43;;;1.33;;
17422;SDS011;8829;47.932;7.810;2023-05-07T03:52:25;1.80;;;1.70;;
17422;SDS011;8829;47.932;7.810;2023-05-07T03:54:52;2.10;;;1.90;;
17422;SDS011;8829;47.932;7.810;2023-05-07T03:57:20;2.77;;;1.77;;
17422;SDS011;8829;47.932;7.810;2023-05-07T03:59:47;2.10;;;1.70;;
17422;SDS011;8829;47.932;7.810;2023-05-07T04:02:13;4.43;;;1.70;;
17422;SDS011;8829;47.932;7.810;2023-05-07T04:04:40;9.20;;;1.83;;
17422;SDS011;8829;47.932;7.810;2023-05-07T04:07:07;3.07;;;1.83;;
17422;SDS011;8829;47.932;7.810;2023-05-07T04:09:33;1.90;;;1.47;;
17422;SDS011;8829;47.932;7.810;2023-05-07T04:12:00;2.67;;;1.67;;
17422;SDS011;8829;47.932;7.810;2023-05-07T04:14:28;2.17;;;1.97;;
17422;SDS011;8829;47.932;7.810;2023-05-07T04:16:57;1.33;;;1.23;;
17422;SDS011;8829;47.932;7.810;2023-05-07T04:19:23;2.90;;;2.20;;
17422;SDS011;8829;47.932;7.810;2023-05-07T04:21:50;1.70;;;1.53;;
17422;SDS011;8829;47.932;7.810;2023-05-07T04:24:17;2.10;;;1.63;;
17422;SDS011;8829;47.932;7.810;2023-05-07T04:26:44;1.77;;;1.67;;
17422;SDS011;8829;47.932;7.810;2023-05-07T04:29:10;4.50;;;1.50;;
17422;SDS011;8829;47.932;7.810;2023-05-07T04:31:38;1.70;;;1.60;;
17422;SDS011;8829;47.932;7.810;2023-05-07T04:34:05;3.23;;;1.37;;
17422;SDS011;8829;47.932;7.810;2023-05-07T04:36:32;1.57;;;1.30;;
17422;SDS011;8829;47.932;7.810;2023-05-07T04:38:59;1.70;;;1.60;;
17422;SDS011;8829;47.932;7.810;2023-05-07T04:41:25;2.17;;;2.00;;
17422;SDS011;8829;47.932;7.810;2023-05-07T04:43:52;1.90;;;1.70;;
17422;SDS011;8829;47.932;7.810;2023-05-07T04:46:21;1.80;;;1.60;;
17422;SDS011;8829;47.932;7.810;2023-05-07T04:48:50;1.70;;;1.60;;
17422;SDS011;8829;47.932;7.810;2023-05-07T04:51:16;1.50;;;1.40;;
17422;SDS011;8829;47.932;7.810;2023-05-07T04:53:43;3.23;;;1.53;;
17422;SDS011;8829;47.932;7.810;2023-05-07T04:56:10;4.10;;;1.70;;
17422;SDS011;8829;47.932;7.810;2023-05-07T04:58:37;1.90;;;1.70;;
17422;SDS011;8829;47.932;7.810;2023-05-07T05:01:03;6.30;;;1.60;;
17422;SDS011;8829;47.932;7.810;2023-05-07T05:03:31;2.03;;;1.70;;
17422;SDS011;8829;47.932;7.810;2023-05-07T05:05:59;1.60;;;1.50;;
17422;SDS011;8829;47.932;7.810;2023-05-07T05:08:25;2.13;;;1.43;;
17422;SDS011;8829;47.932;7.810;2023-05-07T05:10:52;2.50;;;2.07;;
17422;SDS011;8829;47.932;7.810;2023-05-07T05:13:19;3.13;;;1.57;;
17422;SDS011;8829;47.932;7.810;2023-05-07T05:15:46;3.93;;;1.70;;
17422;SDS011;8829;47.932;7.810;2023-05-07T05:18:12;1.33;;;1.33;;
17422;SDS011;8829;47.932;7.810;2023-05-07T05:20:39;1.30;;;1.20;;
17422;SDS011;8829;47.932;7.810;2023-05-07T05:23:07;1.77;;;1.50;;
17422;SDS011;8829;47.932;7.810;2023-05-07T05:25:34;1.60;;;1.60;;
17422;SDS011;8829;47.932;7.810;2023-05-07T05:28:02;1.43;;;1.30;;
17422;SDS011;8829;47.932;7.810;2023-05-07T05:30:29;1.63;;;1.37;;
17422;SDS011;8829;47.932;7.810;2023-05-07T05:32:55;2.10;;;1.40;;
17422;SDS011;8829;47.932;7.810;2023-05-07T05:35:22;1.37;;;1.30;;
17422;SDS011;8829;47.932;7.810;2023-05-07T05:37:49;2.23;;;1.87;;
17422;SDS011;8829;47.932;7.810;2023-05-07T05:40:17;1.47;;;1.40;;
17422;SDS011;8829;47.932;7.810;2023-05-07T05:42:43;2.47;;;1.80;;
17422;SDS011;8829;47.932;7.810;2023-05-07T05:45:10;1.70;;;1.60;;
17422;SDS011;8829;47.932;7.810;2023-05-07T05:47:37;1.70;;;1.60;;
17422;SDS011;8829;47.932;7.810;2023-05-07T05:50:04;5.23;;;1.80;;
17422;SDS011;8829;47.932;7.810;2023-05-07T05:52:32;1.63;;;1.63;;
17422;SDS011;8829;47.932;7.810;2023-05-07T05:54:58;1.80;;;1.23;;
17422;SDS011;8829;47.932;7.810;2023-05-07T05:57:26;1.70;;;1.47;;
17422;SDS011;8829;47.932;7.810;2023-05-07T05:59:53;2.00;;;1.57;;
17422;SDS011;8829;47.932;7.810;2023-05-07T06:02:20;1.77;;;1.60;;
17422;SDS011;8829;47.932;7.810;2023-05-07T06:04:46;1.07;;;1.07;;
17422;SDS011;8829;47.932;7.810;2023-05-07T06:07:13;1.47;;;1.43;;
17422;SDS011;8829;47.932;7.810;2023-05-07T06:09:40;5.93;;;1.30;;
17422;SDS011;8829;47.932;7.810;2023-05-07T06:12:06;6.03;;;1.60;;
17422;SDS011;8829;47.932;7.810;2023-05-07T06:14:34;2.50;;;1.33;;
17422;SDS011;8829;47.932;7.810;2023-05-07T06:17:01;1.47;;;1.33;;
17422;SDS011;8829;47.932;7.810;2023-05-07T06:19:28;2.67;;;1.80;;
17422;SDS011;8829;47.932;7.810;2023-05-07T06:21:54;1.53;;;1.43;;
17422;SDS011;8829;47.932;7.810;2023-05-07T06:24:22;1.20;;;1.20;;
17422;SDS011;8829;47.932;7.810;2023-05-07T06:26:48;2.23;;;1.30;;
17422;SDS011;8829;47.932;7.810;2023-05-07T06:29:15;2.87;;;1.60;;
17422;SDS011;8829;47.932;7.810;2023-05-07T06:31:43;2.50;;;1.83;;
17422;SDS011;8829;47.932;7.810;2023-05-07T06:34:10;1.70;;;1.60;;
17422;SDS011;8829;47.932;7.810;2023-05-07T06:36:39;3.27;;;1.60;;
17422;SDS011;8829;47.932;7.810;2023-05-07T06:39:05;1.93;;;1.40;;
17422;SDS011;8829;47.932;7.810;2023-05-07T06:41:32;3.57;;;2.13;;
17422;SDS011;8829;47.932;7.810;2023-05-07T06:43:59;1.93;;;1.60;;
17422;SDS011;8829;47.932;7.810;2023-05-07T06:46:27;3.20;;;2.00;;
17422;SDS011;8829;47.932;7.810;2023-05-07T06:48:55;4.07;;;1.80;;
17422;SDS011;8829;47.932;7.810;2023-05-07T06:51:22;2.40;;;1.77;;
17422;SDS011;8829;47.932;7.810;2023-05-07T06:53:48;1.73;;;1.63;;
17422;SDS011;8829;47.932;7.810;2023-05-07T06:56:15;3.40;;;1.63;;
17422;SDS011;8829;47.932;7.810;2023-05-07T06:58:42;1.77;;;1.63;;
17422;SDS011;8829;47.932;7.810;2023-05-07T07:01:08;1.97;;;1.70;;
17422;SDS011;8829;47.932;7.810;2023-05-07T07:03:35;3.73;;;1.70;;
17422;SDS011;8829;47.932;7.810;2023-05-07T07:06:03;2.23;;;2.03;;
17422;SDS011;8829;47.932;7.810;2023-05-07T07:08:30;3.30;;;2.00;;
17422;SDS011;8829;47.932;7.810;2023-05-07T07:10:57;2.27;;;2.03;;
17422;SDS011;8829;47.932;7.810;2023-05-07T07:13:24;2.27;;;1.80;;
17422;SDS011;8829;47.932;7.810;2023-05-07T07:15:51;4.17;;;1.80;;
17422;SDS011;8829;47.932;7.810;2023-05-07T07:18:17;2.33;;;1.70;;
17422;SDS011;8829;47.932;7.810;2023-05-07T07:20:44;2.30;;;1.90;;
17422;SDS011;8829;47.932;7.810;2023-05-07T07:23:12;1.67;;;1.50;;
17422;SDS011;8829;47.932;7.810;2023-05-07T07:25:39;2.97;;;1.70;;
17422;SDS011;8829;47.932;7.810;2023-05-07T07:28:06;2.03;;;1.90;;
17422;SDS011;8829;47.932;7.810;2023-05-07T07:30:32;2.20;;;1.60;;
17422;SDS011;8829;47.932;7.810;2023-05-07T07:32:59;1.50;;;1.40;;
17422;SDS011;8829;47.932;7.810;2023-05-07T07:35:28;2.70;;;1.83;;
17422;SDS011;8829;47.932;7.810;2023-05-07T07:37:54;2.83;;;1.63;;
17422;SDS011;8829;47.932;7.810;2023-05-07T07:40:22;2.50;;;1.97;;
17422;SDS011;8829;47.932;7.810;2023-05-07T07:42:49;3.33;;;1.73;;
17422;SDS011;8829;47.932;7.810;2023-05-07T07:45:16;2.00;;;1.50;;
17422;SDS011;8829;47.932;7.810;2023-05-07T07:47:43;1.80;;;1.70;;
17422;SDS011;8829;47.932;7.810;2023-05-07T07:50:10;3.63;;;1.77;;
17422;SDS011;8829;47.932;7.810;2023-05-07T07:52:37;4.10;;;2.10;;
17422;SDS011;8829;47.932;7.810;2023-05-07T07:55:04;2.07;;;1.70;;
17422;SDS011;8829;47.932;7.810;2023-05-07T07:57:33;3.73;;;1.80;;
17422;SDS011;8829;47.932;7.810;2023-05-07T07:59:59;2.07;;;1.87;;
17422;SDS011;8829;47.932;7.810;2023-05-07T08:02:26;2.53;;;2.20;;
17422;SDS011;8829;47.932;7.810;2023-05-07T08:04:53;2.60;;;2.30;;
17422;SDS011;8829;47.932;7.810;2023-05-07T08:07:20;2.00;;;1.80;;
17422;SDS011;8829;47.932;7.810;2023-05-07T08:09:48;2.50;;;1.90;;
17422;SDS011;8829;47.932;7.810;2023-05-07T08:12:14;1.87;;;1.70;;
17422;SDS011;8829;47.932;7.810;2023-05-07T08:14:42;1.80;;;1.70;;
17422;SDS011;8829;47.932;7.810;2023-05-07T08:17:09;3.57;;;2.30;;
17422;SDS011;8829;47.932;7.810;2023-05-07T08:19:36;1.80;;;1.70;;
17422;SDS011;8829;47.932;7.810;2023-05-07T08:22:02;4.83;;;1.87;;
17422;SDS011;8829;47.932;7.810;2023-05-07T08:24:30;3.60;;;2.57;;
17422;SDS011;8829;47.932;7.810;2023-05-07T08:26:57;2.87;;;2.30;;
17422;SDS011;8829;47.932;7.810;2023-05-07T08:29:23;3.40;;;2.00;;
17422;SDS011;8829;47.932;7.810;2023-05-07T08:31:51;2.17;;;1.83;;
17422;SDS011;8829;47.932;7.810;2023-05-07T08:34:18;3.50;;;2.10;;
17422;SDS011;8829;47.932;7.810;2023-05-07T08:36:45;4.07;;;2.37;;
17422;SDS011;8829;47.932;7.810;2023-05-07T08:39:13;2.43;;;2.23;;
17422;SDS011;8829;47.932;7.810;2023-05-07T08:41:41;2.60;;;2.40;;
17422;SDS011;8829;47.932;7.810;2023-05-07T08:44:11;2.17;;;1.97;;
17422;SDS011;8829;47.932;7.810;2023-05-07T08:46:38;5.37;;;2.53;;
17422;SDS011;8829;47.932;7.810;2023-05-07T08:49:10;2.87;;;2.40;;
17422;SDS011;8829;47.932;7.810;2023-05-07T08:51:36;2.80;;;2.37;;
17422;SDS011;8829;47.932;7.810;2023-05-07T08:54:03;2.77;;;2.57;;
17422;SDS011;8829;47.932;7.810;2023-05-07T08:56:31;2.63;;;2.43;;
17422;SDS011;8829;47.932;7.810;2023-05-07T08:58:58;2.67;;;2.07;;
17422;SDS011;8829;47.932;7.810;2023-05-07T09:01:25;2.93;;;2.03;;
17422;SDS011;8829;47.932;7.810;2023-05-07T09:03:52;4.30;;;1.90;;
17422;SDS011;8829;47.932;7.810;2023-05-07T09:06:20;6.30;;;2.23;;
17422;SDS011;8829;47.932;7.810;2023-05-07T09:08:50;2.23;;;1.97;;
17422;SDS011;8829;47.932;7.810;2023-05-07T09:11:20;5.07;;;1.90;;
17422;SDS011;8829;47.932;7.810;2023-05-07T09:13:47;4.50;;;1.97;;
17422;SDS011;8829;47.932;7.810;2023-05-07T09:16:16;9.53;;;2.43;;
17422;SDS011;8829;47.932;7.810;2023-05-07T09:18:43;3.80;;;2.10;;
17422;SDS011;8829;47.932;7.810;2023-05-07T09:21:10;3.10;;;2.17;;
17422;SDS011;8829;47.932;7.810;2023-05-07T09:23:38;1.97;;;1.87;;
17422;SDS011;8829;47.932;7.810;2023-05-07T09:26:06;2.47;;;1.97;;
17422;SDS011;8829;47.932;7.810;2023-05-07T09:28:37;2.20;;;2.00;;
17422;SDS011;8829;47.932;7.810;2023-05-07T09:31:05;3.03;;;2.00;;
17422;SDS011;8829;47.932;7.810;2023-05-07T09:33:32;2.27;;;2.07;;
17422;SDS011;8829;47.932;7.810;2023-05-07T09:36:01;2.80;;;2.10;;
17422;SDS011;8829;47.932;7.810;2023-05-07T09:38:30;4.43;;;2.53;;
17422;SDS011;8829;47.932;7.810;2023-05-07T09:41:02;2.40;;;2.20;;
17422;SDS011;8829;47.932;7.810;2023-05-07T09:43:31;3.63;;;2.77;;
17422;SDS011;8829;47.932;7.810;2023-05-07T09:46:00;4.53;;;2.23;;
17422;SDS011;8829;47.932;7.810;2023-05-07T09:48:36;2.97;;;2.37;;
17422;SDS011;8829;47.932;7.810;2023-05-07T09:51:06;3.47;;;2.60;;
17422;SDS011;8829;47.932;7.810;2023-05-07T09:53:40;3.17;;;2.87;;
17422;SDS011;8829;47.932;7.810;2023-05-07T09:56:09;2.87;;;2.43;;
17422;SDS011;8829;47.932;7.810;2023-05-07T09:58:37;2.40;;;2.20;;
17422;SDS011;8829;47.932;7.810;2023-05-07T10:01:05;2.97;;;2.23;;
17422;SDS011;8829;47.932;7.810;2023-05-07T10:03:33;2.57;;;2.37;;
17422;SDS011;8829;47.932;7.810;2023-05-07T10:06:02;2.90;;;2.60;;
17422;SDS011;8829;47.932;7.810;2023-05-07T10:08:31;2.87;;;2.67;;
17422;SDS011;8829;47.932;7.810;2023-05-07T10:10:58;4.57;;;2.53;;
17422;SDS011;8829;47.932;7.810;2023-05-07T10:13:28;2.73;;;2.53;;
17422;SDS011;8829;47.932;7.810;2023-05-07T10:15:55;3.17;;;2.87;;
17422;SDS011;8829;47.932;7.810;2023-05-07T10:18:23;3.37;;;3.03;;
17422;SDS011;8829;47.932;7.810;2023-05-07T10:20:54;5.53;;;3.57;;
17422;SDS011;8829;47.932;7.810;2023-05-07T10:23:28;3.27;;;2.80;;
17422;SDS011;8829;47.932;7.810;2023-05-07T10:25:57;7.93;;;7.07;;
17422;SDS011;8829;47.932;7.810;2023-05-07T10:28:25;3.33;;;3.10;;
17422;SDS011;8829;47.932;7.810;2023-05-07T10:30:58;3.47;;;3.17;;
17422;SDS011;8829;47.932;7.810;2023-05-07T10:33:38;4.87;;;2.77;;
17422;SDS011;8829;47.932;7.810;2023-05-07T10:36:05;3.23;;;2.93;;
17422;SDS011;8829;47.932;7.810;2023-05-07T10:38:33;3.13;;;2.83;;
17422;SDS011;8829;47.932;7.810;2023-05-07T10:41:00;2.97;;;2.70;;
17422;SDS011;8829;47.932;7.810;2023-05-07T10:43:39;10.53;;;5.40;;
17422;SDS011;8829;47.932;7.810;2023-05-07T10:46:10;5.33;;;2.93;;
17422;SDS011;8829;47.932;7.810;2023-05-07T10:51:41;4.20;;;2.60;;
17422;SDS011;8829;47.932;7.810;2023-05-07T10:54:20;3.80;;;2.70;;
17422;SDS011;8829;47.932;7.810;2023-05-07T10:56:48;2.87;;;2.67;;
17422;SDS011;8829;47.932;7.810;2023-05-07T10:59:36;3.20;;;2.97;;
17422;SDS011;8829;47.932;7.810;2023-05-07T11:02:07;6.00;;;2.40;;
17422;SDS011;8829;47.932;7.810;2023-05-07T11:04:36;4.97;;;2.60;;
17422;SDS011;8829;47.932;7.810;2023-05-07T11:10:01;4.57;;;2.63;;
17422;SDS011;8829;47.932;7.810;2023-05-07T11:18:03;2.63;;;2.37;;
17422;SDS011;8829;47.932;7.810;2023-05-07T11:20:50;2.67;;;2.47;;
17422;SDS011;8829;47.932;7.810;2023-05-07T11:26:21;2.57;;;2.37;;
17422;SDS011;8829;47.932;7.810;2023-05-07T11:28:48;4.30;;;2.33;;
17422;SDS011;8829;47.932;7.810;2023-05-07T11:31:19;3.13;;;2.33;;
17422;SDS011;8829;47.932;7.810;2023-05-07T11:33:47;2.80;;;2.47;;
17422;SDS011;8829;47.932;7.810;2023-05-07T11:36:14;3.70;;;2.70;;
17422;SDS011;8829;47.932;7.810;2023-05-07T11:38:41;2.20;;;2.10;;
17422;SDS011;8829;47.932;7.810;2023-05-07T11:41:08;2.17;;;1.97;;
17422;SDS011;8829;47.932;7.810;2023-05-07T11:43:35;3.53;;;2.30;;
17422;SDS011;8829;47.932;7.810;2023-05-07T11:46:05;2.77;;;2.43;;
17422;SDS011;8829;47.932;7.810;2023-05-07T11:48:35;3.57;;;2.53;;
17422;SDS011;8829;47.932;7.810;2023-05-07T11:51:02;2.93;;;2.60;;
17422;SDS011;8829;47.932;7.810;2023-05-07T11:53:35;2.83;;;2.40;;
17422;SDS011;8829;47.932;7.810;2023-05-07T11:56:05;2.33;;;2.13;;
17422;SDS011;8829;47.932;7.810;2023-05-07T11:58:32;2.43;;;2.23;;
17422;SDS011;8829;47.932;7.810;2023-05-07T12:00:59;2.33;;;2.20;;
17422;SDS011;8829;47.932;7.810;2023-05-07T12:03:26;3.53;;;2.00;;
17422;SDS011;8829;47.932;7.810;2023-05-07T12:05:54;2.33;;;2.00;;
17422;SDS011;8829;47.932;7.810;2023-05-07T12:08:21;2.10;;;2.00;;
17422;SDS011;8829;47.932;7.810;2023-05-07T12:10:48;2.20;;;2.00;;
17422;SDS011;8829;47.932;7.810;2023-05-07T12:13:16;2.90;;;2.20;;
17422;SDS011;8829;47.932;7.810;2023-05-07T12:15:43;2.23;;;1.97;;
17422;SDS011;8829;47.932;7.810;2023-05-07T12:18:10;2.73;;;2.53;;
17422;SDS011;8829;47.932;7.810;2023-05-07T12:20:38;2.77;;;2.57;;
17422;SDS011;8829;47.932;7.810;2023-05-07T12:23:06;3.53;;;2.57;;
17422;SDS011;8829;47.932;7.810;2023-05-07T12:25:34;2.93;;;2.63;;
17422;SDS011;8829;47.932;7.810;2023-05-07T12:28:01;2.83;;;2.53;;
17422;SDS011;8829;47.932;7.810;2023-05-07T12:30:30;2.40;;;2.20;;
17422;SDS011;8829;47.932;7.810;2023-05-07T12:32:56;2.53;;;2.33;;
17422;SDS011;8829;47.932;7.810;2023-05-07T12:35:26;2.20;;;2.00;;
17422;SDS011;8829;47.932;7.810;2023-05-07T12:37:57;3.47;;;2.40;;
17422;SDS011;8829;47.932;7.810;2023-05-07T12:40:34;2.77;;;2.43;;
17422;SDS011;8829;47.932;7.810;2023-05-07T12:43:02;2.77;;;2.57;;
17422;SDS011;8829;47.932;7.810;2023-05-07T12:45:29;3.03;;;2.20;;
17422;SDS011;8829;47.932;7.810;2023-05-07T12:47:56;2.70;;;2.50;;
17422;SDS011;8829;47.932;7.810;2023-05-07T12:50:30;2.73;;;2.40;;
17422;SDS011;8829;47.932;7.810;2023-05-07T12:52:57;2.90;;;2.37;;
17422;SDS011;8829;47.932;7.810;2023-05-07T12:55:26;2.83;;;2.63;;
17422;SDS011;8829;47.932;7.810;2023-05-07T12:57:54;3.00;;;2.20;;
17422;SDS011;8829;47.932;7.810;2023-05-07T13:00:35;3.07;;;2.77;;
17422;SDS011;8829;47.932;7.810;2023-05-07T13:03:02;6.40;;;2.97;;
17422;SDS011;8829;47.932;7.810;2023-05-07T13:05:29;4.23;;;3.10;;
17422;SDS011;8829;47.932;7.810;2023-05-07T13:07:57;3.43;;;3.17;;
17422;SDS011;8829;47.932;7.810;2023-05-07T13:10:26;3.13;;;2.83;;
17422;SDS011;8829;47.932;7.810;2023-05-07T13:12:54;2.83;;;2.47;;
17422;SDS011;8829;47.932;7.810;2023-05-07T13:15:21;3.30;;;2.90;;
17422;SDS011;8829;47.932;7.810;2023-05-07T13:17:48;3.17;;;2.87;;
17422;SDS011;8829;47.932;7.810;2023-05-07T13:20:15;4.17;;;2.53;;
17422;SDS011;8829;47.932;7.810;2023-05-07T13:22:42;2.50;;;2.37;;
17422;SDS011;8829;47.932;7.810;2023-05-07T13:25:08;3.10;;;2.50;;
17422;SDS011;8829;47.932;7.810;2023-05-07T13:27:36;2.93;;;2.67;;
17422;SDS011;8829;47.932;7.810;2023-05-07T13:30:03;3.73;;;2.93;;
17422;SDS011;8829;47.932;7.810;2023-05-07T13:32:31;2.87;;;2.57;;
17422;SDS011;8829;47.932;7.810;2023-05-07T13:34:58;4.50;;;3.13;;
17422;SDS011;8829;47.932;7.810;2023-05-07T13:37:25;3.33;;;2.57;;
17422;SDS011;8829;47.932;7.810;2023-05-07T13:39:51;2.67;;;2.27;;
17422;SDS011;8829;47.932;7.810;2023-05-07T13:42:18;3.87;;;2.87;;
17422;SDS011;8829;47.932;7.810;2023-05-07T13:44:46;3.20;;;2.90;;
17422;SDS011;8829;47.932;7.810;2023-05-07T13:47:13;2.97;;;2.57;;
17422;SDS011;8829;47.932;7.810;2023-05-07T13:49:39;2.87;;;2.33;;
17422;SDS011;8829;47.932;7.810;2023-05-07T13:52:06;2.57;;;2.13;;
17422;SDS011;8829;47.932;7.810;2023-05-07T13:54:33;3.10;;;2.60;;
17422;SDS011;8829;47.932;7.810;2023-05-07T13:56:59;3.00;;;2.70;;
17422;SDS011;8829;47.932;7.810;2023-05-07T13:59:26;3.40;;;2.80;;
17422;SDS011;8829;47.932;7.810;2023-05-07T14:01:54;4.87;;;2.87;;
17422;SDS011;8829;47.932;7.810;2023-05-07T14:04:21;9.37;;;3.20;;
17422;SDS011;8829;47.932;7.810;2023-05-07T14:06:48;3.13;;;2.47;;
17422;SDS011;8829;47.932;7.810;2023-05-07T14:09:14;2.60;;;2.40;;
17422;SDS011;8829;47.932;7.810;2023-05-07T14:11:41;2.73;;;2.50;;
17422;SDS011;8829;47.932;7.810;2023-05-07T14:14:08;2.43;;;2.30;;
17422;SDS011;8829;47.932;7.810;2023-05-07T14:16:35;2.30;;;2.10;;
17422;SDS011;8829;47.932;7.810;2023-05-07T14:19:03;2.93;;;2.00;;
17422;SDS011;8829;47.932;7.810;2023-05-07T14:21:30;2.23;;;2.13;;
17422;SDS011;8829;47.932;7.810;2023-05-07T14:23:57;2.20;;;2.00;;
17422;SDS011;8829;47.932;7.810;2023-05-07T14:26:24;3.03;;;2.50;;
17422;SDS011;8829;47.932;7.810;2023-05-07T14:28:52;2.20;;;2.00;;
17422;SDS011;8829;47.932;7.810;2023-05-07T14:31:20;2.97;;;2.67;;
17422;SDS011;8829;47.932;7.810;2023-05-07T14:33:47;3.83;;;2.90;;
17422;SDS011;8829;47.932;7.810;2023-05-07T14:36:16;3.97;;;2.53;;
17422;SDS011;8829;47.932;7.810;2023-05-07T14:38:44;2.23;;;2.00;;
17422;SDS011;8829;47.932;7.810;2023-05-07T14:41:11;2.30;;;2.10;;
17422;SDS011;8829;47.932;7.810;2023-05-07T14:43:38;2.07;;;1.87;;
17422;SDS011;8829;47.932;7.810;2023-05-07T14:46:04;2.30;;;2.03;;
17422;SDS011;8829;47.932;7.810;2023-05-07T14:48:31;2.67;;;1.80;;
17422;SDS011;8829;47.932;7.810;2023-05-07T14:50:58;3.97;;;2.00;;
17422;SDS011;8829;47.932;7.810;2023-05-07T14:53:26;2.70;;;1.50;;
17422;SDS011;8829;47.932;7.810;2023-05-07T14:55:52;1.63;;;1.53;;
17422;SDS011;8829;47.932;7.810;2023-05-07T14:58:19;1.50;;;1.40;;
17422;SDS011;8829;47.932;7.810;2023-05-07T15:00:46;1.70;;;1.43;;
17422;SDS011;8829;47.932;7.810;2023-05-07T15:03:13;2.13;;;1.50;;
17422;SDS011;8829;47.932;7.810;2023-05-07T15:05:40;2.87;;;1.60;;
17422;SDS011;8829;47.932;7.810;2023-05-07T15:08:07;2.80;;;1.53;;
17422;SDS011;8829;47.932;7.810;2023-05-07T15:10:36;1.60;;;1.50;;
17422;SDS011;8829;47.932;7.810;2023-05-07T15:13:06;2.03;;;1.70;;
17422;SDS011;8829;47.932;7.810;2023-05-07T15:15:33;1.80;;;1.70;;
17422;SDS011;8829;47.932;7.810;2023-05-07T15:17:59;1.90;;;1.80;;